sensor_id;sensor_type;location;lat;lon;timestamp;P1;durP1;ratioP1;P2;durP2;ratioP2
74995;SDS011;63545;51.690;5.202;2023-10-31T00:00:15;33.25;;;13.32;;
74995;SDS011;63545;51.690;5.202;2023-10-31T00:02:40;32.00;;;13.63;;
74995;SDS011;63545;51.690;5.202;2023-10-31T00:05:06;33.40;;;12.87;;
74995;SDS011;63545;51.690;5.202;2023-10-31T00:07:31;26.23;;;11.97;;
74995;SDS011;63545;51.690;5.202;2023-10-31T00:09:56;32.53;;;12.90;;
74995;SDS011;63545;51.690;5.202;2023-10-31T00:12:22;37.40;;;13.37;;
74995;SDS011;63545;51.690;5.202;2023-10-31T00:14:47;29.43;;;13.00;;
74995;SDS011;63545;51.690;5.202;2023-10-31T00:17:12;31.87;;;12.47;;
74995;SDS011;63545;51.690;5.202;2023-10-31T00:19:38;27.37;;;10.00;;
74995;SDS011;63545;51.690;5.202;2023-10-31T00:22:03;22.02;;;7.40;;
74995;SDS011;63545;51.690;5.202;2023-10-31T00:24:29;19.37;;;6.23;;
74995;SDS011;63545;51.690;5.202;2023-10-31T00:26:54;20.97;;;5.53;;
74995;SDS011;63545;51.690;5.202;2023-10-31T00:29:20;16.87;;;3.90;;
74995;SDS011;63545;51.690;5.202;2023-10-31T00:31:45;17.80;;;3.83;;
74995;SDS011;63545;51.690;5.202;2023-10-31T00:34:10;13.60;;;3.40;;
74995;SDS011;63545;51.690;5.202;2023-10-31T00:36:36;16.40;;;3.23;;
74995;SDS011;63545;51.690;5.202;2023-10-31T00:39:01;11.10;;;3.33;;
74995;SDS011;63545;51.690;5.202;2023-10-31T00:41:26;8.60;;;3.17;;
74995;SDS011;63545;51.690;5.202;2023-10-31T00:43:52;13.68;;;3.45;;
74995;SDS011;63545;51.690;5.202;2023-10-31T00:46:17;18.97;;;3.30;;
74995;SDS011;63545;51.690;5.202;2023-10-31T00:48:42;11.80;;;3.70;;
74995;SDS011;63545;51.690;5.202;2023-10-31T00:51:08;13.37;;;3.40;;
74995;SDS011;63545;51.690;5.202;2023-10-31T00:53:33;13.93;;;3.93;;
74995;SDS011;63545;51.690;5.202;2023-10-31T00:55:58;15.93;;;4.10;;
74995;SDS011;63545;51.690;5.202;2023-10-31T00:58:24;12.50;;;4.37;;
74995;SDS011;63545;51.690;5.202;2023-10-31T01:00:49;13.10;;;3.97;;
74995;SDS011;63545;51.690;5.202;2023-10-31T01:03:14;14.60;;;4.17;;
74995;SDS011;63545;51.690;5.202;2023-10-31T01:05:40;15.88;;;4.40;;
74995;SDS011;63545;51.690;5.202;2023-10-31T01:08:05;18.17;;;3.80;;
74995;SDS011;63545;51.690;5.202;2023-10-31T01:10:30;21.87;;;4.47;;
74995;SDS011;63545;51.690;5.202;2023-10-31T01:12:56;20.30;;;5.07;;
74995;SDS011;63545;51.690;5.202;2023-10-31T01:15:21;18.90;;;4.70;;
74995;SDS011;63545;51.690;5.202;2023-10-31T01:17:46;20.63;;;5.37;;
74995;SDS011;63545;51.690;5.202;2023-10-31T01:20:12;26.10;;;6.33;;
74995;SDS011;63545;51.690;5.202;2023-10-31T01:22:37;22.43;;;6.30;;
74995;SDS011;63545;51.690;5.202;2023-10-31T01:25:03;23.83;;;7.10;;
74995;SDS011;63545;51.690;5.202;2023-10-31T01:27:29;21.98;;;7.25;;
74995;SDS011;63545;51.690;5.202;2023-10-31T01:29:54;27.50;;;7.43;;
74995;SDS011;63545;51.690;5.202;2023-10-31T01:32:19;25.33;;;7.47;;
74995;SDS011;63545;51.690;5.202;2023-10-31T01:34:44;23.47;;;8.40;;
74995;SDS011;63545;51.690;5.202;2023-10-31T01:37:10;32.53;;;9.57;;
74995;SDS011;63545;51.690;5.202;2023-10-31T01:39:36;31.80;;;10.03;;
74995;SDS011;63545;51.690;5.202;2023-10-31T01:42:01;32.63;;;11.27;;
74995;SDS011;63545;51.690;5.202;2023-10-31T01:44:27;35.30;;;10.53;;
74995;SDS011;63545;51.690;5.202;2023-10-31T01:46:52;37.63;;;13.37;;
74995;SDS011;63545;51.690;5.202;2023-10-31T01:49:17;41.10;;;13.77;;
74995;SDS011;63545;51.690;5.202;2023-10-31T01:51:43;50.85;;;15.70;;
74995;SDS011;63545;51.690;5.202;2023-10-31T01:54:09;48.73;;;15.93;;
74995;SDS011;63545;51.690;5.202;2023-10-31T01:56:35;54.65;;;19.45;;
74995;SDS011;63545;51.690;5.202;2023-10-31T01:59:01;59.73;;;20.73;;
74995;SDS011;63545;51.690;5.202;2023-10-31T02:01:26;58.20;;;22.03;;
74995;SDS011;63545;51.690;5.202;2023-10-31T02:03:53;70.03;;;23.63;;
74995;SDS011;63545;51.690;5.202;2023-10-31T02:06:18;78.85;;;24.77;;
74995;SDS011;63545;51.690;5.202;2023-10-31T02:08:43;82.50;;;28.67;;
74995;SDS011;63545;51.690;5.202;2023-10-31T02:11:09;86.80;;;29.57;;
74995;SDS011;63545;51.690;5.202;2023-10-31T02:13:35;83.93;;;28.52;;
74995;SDS011;63545;51.690;5.202;2023-10-31T02:16:01;89.47;;;29.00;;
74995;SDS011;63545;51.690;5.202;2023-10-31T02:18:27;89.80;;;30.40;;
74995;SDS011;63545;51.690;5.202;2023-10-31T02:20:52;100.68;;;31.83;;
74995;SDS011;63545;51.690;5.202;2023-10-31T02:23:18;97.97;;;30.97;;
74995;SDS011;63545;51.690;5.202;2023-10-31T02:25:43;104.47;;;32.70;;
74995;SDS011;63545;51.690;5.202;2023-10-31T02:28:08;98.23;;;32.87;;
74995;SDS011;63545;51.690;5.202;2023-10-31T02:30:34;98.47;;;32.42;;
74995;SDS011;63545;51.690;5.202;2023-10-31T02:33:00;101.00;;;33.40;;
74995;SDS011;63545;51.690;5.202;2023-10-31T02:35:26;110.15;;;35.85;;
74995;SDS011;63545;51.690;5.202;2023-10-31T02:37:52;101.17;;;34.40;;
74995;SDS011;63545;51.690;5.202;2023-10-31T02:40:17;99.73;;;33.13;;
74995;SDS011;63545;51.690;5.202;2023-10-31T02:42:43;101.05;;;34.70;;
74995;SDS011;63545;51.690;5.202;2023-10-31T02:45:09;110.40;;;32.00;;
74995;SDS011;63545;51.690;5.202;2023-10-31T02:47:34;97.07;;;31.70;;
74995;SDS011;63545;51.690;5.202;2023-10-31T02:50:00;103.53;;;31.88;;
74995;SDS011;63545;51.690;5.202;2023-10-31T02:52:25;100.57;;;31.87;;
74995;SDS011;63545;51.690;5.202;2023-10-31T02:54:50;97.87;;;31.63;;
74995;SDS011;63545;51.690;5.202;2023-10-31T02:57:16;85.30;;;29.77;;
74995;SDS011;63545;51.690;5.202;2023-10-31T02:59:42;88.22;;;29.70;;
74995;SDS011;63545;51.690;5.202;2023-10-31T03:02:07;86.27;;;27.07;;
74995;SDS011;63545;51.690;5.202;2023-10-31T03:04:33;82.37;;;27.80;;
74995;SDS011;63545;51.690;5.202;2023-10-31T03:06:58;89.93;;;29.30;;
74995;SDS011;63545;51.690;5.202;2023-10-31T03:09:23;102.47;;;28.93;;
74995;SDS011;63545;51.690;5.202;2023-10-31T03:11:49;85.68;;;27.60;;
74995;SDS011;63545;51.690;5.202;2023-10-31T03:14:14;92.70;;;28.30;;
74995;SDS011;63545;51.690;5.202;2023-10-31T03:16:39;85.57;;;27.93;;
74995;SDS011;63545;51.690;5.202;2023-10-31T03:19:05;86.70;;;27.50;;
74995;SDS011;63545;51.690;5.202;2023-10-31T03:21:30;84.17;;;28.13;;
74995;SDS011;63545;51.690;5.202;2023-10-31T03:23:56;84.80;;;27.17;;
74995;SDS011;63545;51.690;5.202;2023-10-31T03:26:21;84.17;;;26.37;;
74995;SDS011;63545;51.690;5.202;2023-10-31T03:28:47;78.78;;;25.30;;
74995;SDS011;63545;51.690;5.202;2023-10-31T03:31:12;90.27;;;26.40;;
74995;SDS011;63545;51.690;5.202;2023-10-31T03:33:38;82.10;;;26.55;;
74995;SDS011;63545;51.690;5.202;2023-10-31T03:36:04;77.50;;;25.13;;
74995;SDS011;63545;51.690;5.202;2023-10-31T03:38:33;74.85;;;24.70;;
74995;SDS011;63545;51.690;5.202;2023-10-31T03:40:58;75.00;;;24.33;;
74995;SDS011;63545;51.690;5.202;2023-10-31T03:43:24;77.90;;;24.53;;
74995;SDS011;63545;51.690;5.202;2023-10-31T03:45:49;78.53;;;24.50;;
74995;SDS011;63545;51.690;5.202;2023-10-31T03:48:15;84.47;;;24.87;;
74995;SDS011;63545;51.690;5.202;2023-10-31T03:50:40;82.55;;;24.73;;
74995;SDS011;63545;51.690;5.202;2023-10-31T03:53:06;79.97;;;25.23;;
74995;SDS011;63545;51.690;5.202;2023-10-31T03:55:31;90.93;;;25.20;;
74995;SDS011;63545;51.690;5.202;2023-10-31T03:57:56;81.40;;;26.03;;
74995;SDS011;63545;51.690;5.202;2023-10-31T04:00:22;87.47;;;25.27;;
74995;SDS011;63545;51.690;5.202;2023-10-31T04:02:48;79.75;;;26.52;;
74995;SDS011;63545;51.690;5.202;2023-10-31T04:05:13;83.03;;;26.93;;
74995;SDS011;63545;51.690;5.202;2023-10-31T04:07:38;87.90;;;27.58;;
74995;SDS011;63545;51.690;5.202;2023-10-31T04:10:04;84.57;;;26.53;;
74995;SDS011;63545;51.690;5.202;2023-10-31T04:12:30;84.53;;;26.30;;
74995;SDS011;63545;51.690;5.202;2023-10-31T04:14:56;88.50;;;27.58;;
74995;SDS011;63545;51.690;5.202;2023-10-31T04:17:21;87.30;;;28.63;;
74995;SDS011;63545;51.690;5.202;2023-10-31T04:19:46;82.63;;;26.47;;
74995;SDS011;63545;51.690;5.202;2023-10-31T04:22:12;83.87;;;25.90;;
74995;SDS011;63545;51.690;5.202;2023-10-31T04:24:38;79.63;;;25.17;;
74995;SDS011;63545;51.690;5.202;2023-10-31T04:27:03;75.73;;;24.20;;
74995;SDS011;63545;51.690;5.202;2023-10-31T04:29:28;83.00;;;23.90;;
74995;SDS011;63545;51.690;5.202;2023-10-31T04:31:54;77.90;;;23.02;;
74995;SDS011;63545;51.690;5.202;2023-10-31T04:34:19;72.33;;;22.73;;
74995;SDS011;63545;51.690;5.202;2023-10-31T04:36:45;64.73;;;22.93;;
74995;SDS011;63545;51.690;5.202;2023-10-31T04:39:10;70.33;;;22.70;;
74995;SDS011;63545;51.690;5.202;2023-10-31T04:41:35;70.17;;;21.87;;
74995;SDS011;63545;51.690;5.202;2023-10-31T04:44:01;72.17;;;22.87;;
74995;SDS011;63545;51.690;5.202;2023-10-31T04:46:26;76.65;;;22.50;;
74995;SDS011;63545;51.690;5.202;2023-10-31T04:48:54;71.33;;;23.97;;
74995;SDS011;63545;51.690;5.202;2023-10-31T04:51:20;69.70;;;22.70;;
74995;SDS011;63545;51.690;5.202;2023-10-31T04:53:45;68.63;;;23.08;;
74995;SDS011;63545;51.690;5.202;2023-10-31T04:56:13;66.33;;;22.33;;
74995;SDS011;63545;51.690;5.202;2023-10-31T04:58:40;67.43;;;21.25;;
74995;SDS011;63545;51.690;5.202;2023-10-31T05:01:09;67.28;;;20.67;;
74995;SDS011;63545;51.690;5.202;2023-10-31T05:03:36;66.03;;;19.77;;
74995;SDS011;63545;51.690;5.202;2023-10-31T05:06:01;68.88;;;21.48;;
74995;SDS011;63545;51.690;5.202;2023-10-31T05:08:27;68.33;;;21.13;;
74995;SDS011;63545;51.690;5.202;2023-10-31T05:10:53;68.83;;;21.60;;
74995;SDS011;63545;51.690;5.202;2023-10-31T05:13:18;67.72;;;21.10;;
74995;SDS011;63545;51.690;5.202;2023-10-31T05:15:43;71.63;;;22.67;;
74995;SDS011;63545;51.690;5.202;2023-10-31T05:18:09;83.20;;;22.53;;
74995;SDS011;63545;51.690;5.202;2023-10-31T05:20:34;80.00;;;23.50;;
74995;SDS011;63545;51.690;5.202;2023-10-31T05:23:00;74.70;;;23.43;;
74995;SDS011;63545;51.690;5.202;2023-10-31T05:25:25;77.60;;;23.77;;
74995;SDS011;63545;51.690;5.202;2023-10-31T05:27:50;74.83;;;23.43;;
74995;SDS011;63545;51.690;5.202;2023-10-31T05:30:17;75.33;;;23.67;;
74995;SDS011;63545;51.690;5.202;2023-10-31T05:32:42;73.07;;;23.30;;
74995;SDS011;63545;51.690;5.202;2023-10-31T05:35:08;85.07;;;25.90;;
74995;SDS011;63545;51.690;5.202;2023-10-31T05:37:34;87.60;;;26.50;;
74995;SDS011;63545;51.690;5.202;2023-10-31T05:39:59;87.63;;;27.43;;
74995;SDS011;63545;51.690;5.202;2023-10-31T05:42:26;97.95;;;26.85;;
74995;SDS011;63545;51.690;5.202;2023-10-31T05:44:52;85.68;;;28.63;;
74995;SDS011;63545;51.690;5.202;2023-10-31T05:47:18;85.17;;;27.80;;
74995;SDS011;63545;51.690;5.202;2023-10-31T05:49:43;90.55;;;27.33;;
74995;SDS011;63545;51.690;5.202;2023-10-31T05:52:09;86.03;;;27.87;;
74995;SDS011;63545;51.690;5.202;2023-10-31T05:54:34;86.50;;;27.40;;
74995;SDS011;63545;51.690;5.202;2023-10-31T05:56:59;77.60;;;25.33;;
74995;SDS011;63545;51.690;5.202;2023-10-31T05:59:25;83.13;;;26.90;;
74995;SDS011;63545;51.690;5.202;2023-10-31T06:01:50;76.47;;;25.43;;
74995;SDS011;63545;51.690;5.202;2023-10-31T06:04:16;76.57;;;25.37;;
74995;SDS011;63545;51.690;5.202;2023-10-31T06:06:41;67.37;;;23.80;;
74995;SDS011;63545;51.690;5.202;2023-10-31T06:09:06;74.50;;;23.80;;
74995;SDS011;63545;51.690;5.202;2023-10-31T06:11:32;68.72;;;23.05;;
74995;SDS011;63545;51.690;5.202;2023-10-31T06:13:58;61.87;;;21.27;;
74995;SDS011;63545;51.690;5.202;2023-10-31T06:16:24;68.47;;;21.40;;
74995;SDS011;63545;51.690;5.202;2023-10-31T06:18:49;67.77;;;21.27;;
74995;SDS011;63545;51.690;5.202;2023-10-31T06:21:15;62.80;;;20.93;;
74995;SDS011;63545;51.690;5.202;2023-10-31T06:23:40;58.87;;;19.97;;
74995;SDS011;63545;51.690;5.202;2023-10-31T06:26:07;50.75;;;20.13;;
74995;SDS011;63545;51.690;5.202;2023-10-31T06:28:33;53.40;;;20.07;;
74995;SDS011;63545;51.690;5.202;2023-10-31T06:31:00;55.55;;;20.10;;
74995;SDS011;63545;51.690;5.202;2023-10-31T06:33:26;54.85;;;19.13;;
74995;SDS011;63545;51.690;5.202;2023-10-31T06:35:52;53.40;;;18.73;;
74995;SDS011;63545;51.690;5.202;2023-10-31T06:38:18;58.78;;;19.80;;
74995;SDS011;63545;51.690;5.202;2023-10-31T06:40:44;45.10;;;18.03;;
74995;SDS011;63545;51.690;5.202;2023-10-31T06:43:09;52.22;;;18.80;;
74995;SDS011;63545;51.690;5.202;2023-10-31T06:45:35;54.80;;;18.97;;
74995;SDS011;63545;51.690;5.202;2023-10-31T06:48:00;52.73;;;18.73;;
74995;SDS011;63545;51.690;5.202;2023-10-31T06:50:25;53.20;;;19.80;;
74995;SDS011;63545;51.690;5.202;2023-10-31T06:52:51;52.47;;;18.43;;
74995;SDS011;63545;51.690;5.202;2023-10-31T06:55:16;49.17;;;17.97;;
74995;SDS011;63545;51.690;5.202;2023-10-31T06:57:41;53.63;;;18.53;;
74995;SDS011;63545;51.690;5.202;2023-10-31T07:00:08;52.85;;;18.42;;
74995;SDS011;63545;51.690;5.202;2023-10-31T07:02:33;43.63;;;17.52;;
74995;SDS011;63545;51.690;5.202;2023-10-31T07:05:00;42.55;;;17.92;;
74995;SDS011;63545;51.690;5.202;2023-10-31T07:07:25;43.97;;;17.40;;
74995;SDS011;63545;51.690;5.202;2023-10-31T07:09:50;43.87;;;17.53;;
74995;SDS011;63545;51.690;5.202;2023-10-31T07:12:16;43.67;;;17.17;;
74995;SDS011;63545;51.690;5.202;2023-10-31T07:14:41;45.40;;;17.30;;
74995;SDS011;63545;51.690;5.202;2023-10-31T07:17:06;43.70;;;17.40;;
74995;SDS011;63545;51.690;5.202;2023-10-31T07:19:32;45.20;;;16.92;;
74995;SDS011;63545;51.690;5.202;2023-10-31T07:21:57;50.33;;;18.73;;
74995;SDS011;63545;51.690;5.202;2023-10-31T07:24:22;44.87;;;17.80;;
74995;SDS011;63545;51.690;5.202;2023-10-31T07:26:47;43.37;;;18.10;;
74995;SDS011;63545;51.690;5.202;2023-10-31T07:29:13;40.53;;;17.53;;
74995;SDS011;63545;51.690;5.202;2023-10-31T07:31:38;46.90;;;18.80;;
74995;SDS011;63545;51.690;5.202;2023-10-31T07:34:04;42.47;;;18.07;;
74995;SDS011;63545;51.690;5.202;2023-10-31T07:36:30;47.85;;;18.95;;
74995;SDS011;63545;51.690;5.202;2023-10-31T07:38:57;49.53;;;20.60;;
74995;SDS011;63545;51.690;5.202;2023-10-31T07:41:22;47.03;;;20.77;;
74995;SDS011;63545;51.690;5.202;2023-10-31T07:43:47;57.30;;;22.40;;
74995;SDS011;63545;51.690;5.202;2023-10-31T07:46:13;54.40;;;20.77;;
74995;SDS011;63545;51.690;5.202;2023-10-31T07:48:38;56.87;;;22.47;;
74995;SDS011;63545;51.690;5.202;2023-10-31T07:51:04;49.23;;;20.13;;
74995;SDS011;63545;51.690;5.202;2023-10-31T07:53:29;58.83;;;23.07;;
74995;SDS011;63545;51.690;5.202;2023-10-31T07:55:55;38.37;;;17.20;;
74995;SDS011;63545;51.690;5.202;2023-10-31T07:58:20;54.70;;;23.97;;
74995;SDS011;63545;51.690;5.202;2023-10-31T08:00:46;62.53;;;25.08;;
74995;SDS011;63545;51.690;5.202;2023-10-31T08:03:11;62.03;;;24.17;;
74995;SDS011;63545;51.690;5.202;2023-10-31T08:05:37;63.55;;;25.83;;
74995;SDS011;63545;51.690;5.202;2023-10-31T08:08:02;66.53;;;24.80;;
74995;SDS011;63545;51.690;5.202;2023-10-31T08:10:28;61.03;;;25.03;;
74995;SDS011;63545;51.690;5.202;2023-10-31T08:12:53;68.37;;;24.77;;
74995;SDS011;63545;51.690;5.202;2023-10-31T08:15:19;67.70;;;24.60;;
74995;SDS011;63545;51.690;5.202;2023-10-31T08:17:44;65.70;;;25.20;;
74995;SDS011;63545;51.690;5.202;2023-10-31T08:20:10;58.80;;;23.07;;
74995;SDS011;63545;51.690;5.202;2023-10-31T08:22:36;63.55;;;25.15;;
74995;SDS011;63545;51.690;5.202;2023-10-31T08:25:02;59.72;;;24.33;;
74995;SDS011;63545;51.690;5.202;2023-10-31T08:27:27;67.43;;;24.03;;
74995;SDS011;63545;51.690;5.202;2023-10-31T08:29:53;65.47;;;24.37;;
74995;SDS011;63545;51.690;5.202;2023-10-31T08:32:18;69.63;;;23.43;;
74995;SDS011;63545;51.690;5.202;2023-10-31T08:34:44;62.20;;;23.88;;
74995;SDS011;63545;51.690;5.202;2023-10-31T08:37:09;66.57;;;25.10;;
74995;SDS011;63545;51.690;5.202;2023-10-31T08:39:34;65.27;;;25.93;;
74995;SDS011;63545;51.690;5.202;2023-10-31T08:42:00;70.03;;;26.07;;
74995;SDS011;63545;51.690;5.202;2023-10-31T08:44:25;69.10;;;26.50;;
74995;SDS011;63545;51.690;5.202;2023-10-31T08:46:51;81.70;;;28.65;;
74995;SDS011;63545;51.690;5.202;2023-10-31T08:49:17;85.17;;;30.70;;
74995;SDS011;63545;51.690;5.202;2023-10-31T08:51:42;83.27;;;30.30;;
74995;SDS011;63545;51.690;5.202;2023-10-31T08:54:08;80.93;;;29.48;;
74995;SDS011;63545;51.690;5.202;2023-10-31T08:56:34;82.05;;;30.30;;
74995;SDS011;63545;51.690;5.202;2023-10-31T08:59:00;67.60;;;28.60;;
74995;SDS011;63545;51.690;5.202;2023-10-31T09:01:26;72.40;;;28.80;;
74995;SDS011;63545;51.690;5.202;2023-10-31T09:03:51;84.50;;;31.05;;
74995;SDS011;63545;51.690;5.202;2023-10-31T09:06:17;75.23;;;27.23;;
74995;SDS011;63545;51.690;5.202;2023-10-31T09:08:43;86.38;;;32.63;;
74995;SDS011;63545;51.690;5.202;2023-10-31T09:11:08;94.07;;;37.40;;
74995;SDS011;63545;51.690;5.202;2023-10-31T09:13:34;81.37;;;33.97;;
74995;SDS011;63545;51.690;5.202;2023-10-31T09:15:59;88.00;;;34.87;;
74995;SDS011;63545;51.690;5.202;2023-10-31T09:18:25;79.53;;;32.03;;
74995;SDS011;63545;51.690;5.202;2023-10-31T09:20:51;86.13;;;34.05;;
74995;SDS011;63545;51.690;5.202;2023-10-31T09:23:16;84.37;;;33.50;;
74995;SDS011;63545;51.690;5.202;2023-10-31T09:25:42;79.72;;;32.88;;
74995;SDS011;63545;51.690;5.202;2023-10-31T09:28:08;86.10;;;34.00;;
74995;SDS011;63545;51.690;5.202;2023-10-31T09:30:33;86.17;;;32.60;;
74995;SDS011;63545;51.690;5.202;2023-10-31T09:32:58;81.93;;;31.93;;
74995;SDS011;63545;51.690;5.202;2023-10-31T09:35:24;87.70;;;31.73;;
74995;SDS011;63545;51.690;5.202;2023-10-31T09:37:50;86.75;;;33.47;;
74995;SDS011;63545;51.690;5.202;2023-10-31T09:40:15;84.33;;;31.87;;
74995;SDS011;63545;51.690;5.202;2023-10-31T09:42:41;79.10;;;31.13;;
74995;SDS011;63545;51.690;5.202;2023-10-31T09:45:07;76.13;;;31.30;;
74995;SDS011;63545;51.690;5.202;2023-10-31T09:47:32;79.65;;;30.25;;
74995;SDS011;63545;51.690;5.202;2023-10-31T09:50:00;77.37;;;30.57;;
74995;SDS011;63545;51.690;5.202;2023-10-31T09:52:25;69.15;;;28.55;;
74995;SDS011;63545;51.690;5.202;2023-10-31T09:54:51;67.03;;;27.57;;
74995;SDS011;63545;51.690;5.202;2023-10-31T09:57:17;62.63;;;27.67;;
74995;SDS011;63545;51.690;5.202;2023-10-31T09:59:42;65.10;;;28.60;;
74995;SDS011;63545;51.690;5.202;2023-10-31T10:02:08;66.13;;;26.17;;
74995;SDS011;63545;51.690;5.202;2023-10-31T10:04:33;68.00;;;26.73;;
74995;SDS011;63545;51.690;5.202;2023-10-31T10:06:59;73.80;;;26.92;;
74995;SDS011;63545;51.690;5.202;2023-10-31T10:09:28;71.15;;;25.95;;
74995;SDS011;63545;51.690;5.202;2023-10-31T10:11:55;64.13;;;25.37;;
74995;SDS011;63545;51.690;5.202;2023-10-31T10:14:22;64.53;;;24.73;;
74995;SDS011;63545;51.690;5.202;2023-10-31T10:16:48;71.80;;;25.67;;
74995;SDS011;63545;51.690;5.202;2023-10-31T10:19:21;61.47;;;25.53;;
74995;SDS011;63545;51.690;5.202;2023-10-31T10:21:54;68.20;;;25.30;;
74995;SDS011;63545;51.690;5.202;2023-10-31T10:24:21;68.38;;;26.77;;
74995;SDS011;63545;51.690;5.202;2023-10-31T10:26:47;65.67;;;25.77;;
74995;SDS011;63545;51.690;5.202;2023-10-31T10:29:13;72.13;;;27.83;;
74995;SDS011;63545;51.690;5.202;2023-10-31T10:31:39;62.60;;;24.98;;
74995;SDS011;63545;51.690;5.202;2023-10-31T10:34:05;62.70;;;24.05;;
74995;SDS011;63545;51.690;5.202;2023-10-31T10:36:32;67.17;;;25.73;;
74995;SDS011;63545;51.690;5.202;2023-10-31T10:38:58;61.03;;;23.80;;
74995;SDS011;63545;51.690;5.202;2023-10-31T10:41:26;64.50;;;24.25;;
74995;SDS011;63545;51.690;5.202;2023-10-31T10:43:55;63.88;;;24.13;;
74995;SDS011;63545;51.690;5.202;2023-10-31T10:46:23;59.38;;;23.50;;
74995;SDS011;63545;51.690;5.202;2023-10-31T10:48:49;54.47;;;22.30;;
74995;SDS011;63545;51.690;5.202;2023-10-31T10:51:28;56.05;;;23.08;;
74995;SDS011;63545;51.690;5.202;2023-10-31T10:54:07;57.25;;;22.45;;
74995;SDS011;63545;51.690;5.202;2023-10-31T10:56:37;56.92;;;21.52;;
74995;SDS011;63545;51.690;5.202;2023-10-31T10:59:08;52.05;;;21.98;;
74995;SDS011;63545;51.690;5.202;2023-10-31T11:01:43;50.50;;;22.43;;
74995;SDS011;63545;51.690;5.202;2023-10-31T11:04:11;58.78;;;22.27;;
74995;SDS011;63545;51.690;5.202;2023-10-31T11:06:36;47.50;;;20.83;;
74995;SDS011;63545;51.690;5.202;2023-10-31T11:09:03;43.10;;;19.48;;
74995;SDS011;63545;51.690;5.202;2023-10-31T11:11:31;48.22;;;19.48;;
74995;SDS011;63545;51.690;5.202;2023-10-31T11:13:57;39.50;;;19.23;;
74995;SDS011;63545;51.690;5.202;2023-10-31T11:16:26;45.05;;;20.88;;
74995;SDS011;63545;51.690;5.202;2023-10-31T11:18:53;40.60;;;17.83;;
74995;SDS011;63545;51.690;5.202;2023-10-31T11:21:19;39.58;;;19.33;;
74995;SDS011;63545;51.690;5.202;2023-10-31T11:23:56;40.28;;;18.90;;
74995;SDS011;63545;51.690;5.202;2023-10-31T11:26:22;49.27;;;20.17;;
74995;SDS011;63545;51.690;5.202;2023-10-31T11:28:51;45.58;;;21.73;;
74995;SDS011;63545;51.690;5.202;2023-10-31T11:31:16;56.67;;;23.57;;
74995;SDS011;63545;51.690;5.202;2023-10-31T11:33:41;43.17;;;20.88;;
74995;SDS011;63545;51.690;5.202;2023-10-31T11:36:08;41.60;;;21.40;;
74995;SDS011;63545;51.690;5.202;2023-10-31T11:38:36;44.38;;;20.98;;
74995;SDS011;63545;51.690;5.202;2023-10-31T11:41:03;46.95;;;22.33;;
74995;SDS011;63545;51.690;5.202;2023-10-31T11:46:04;44.45;;;21.48;;
74995;SDS011;63545;51.690;5.202;2023-10-31T11:48:49;47.77;;;22.00;;
74995;SDS011;63545;51.690;5.202;2023-10-31T11:51:18;39.92;;;20.35;;
74995;SDS011;63545;51.690;5.202;2023-10-31T11:53:43;42.17;;;20.17;;
74995;SDS011;63545;51.690;5.202;2023-10-31T11:56:09;42.17;;;21.02;;
74995;SDS011;63545;51.690;5.202;2023-10-31T11:58:36;43.50;;;20.85;;
74995;SDS011;63545;51.690;5.202;2023-10-31T12:01:02;40.77;;;21.43;;
74995;SDS011;63545;51.690;5.202;2023-10-31T12:03:36;41.83;;;20.88;;
74995;SDS011;63545;51.690;5.202;2023-10-31T12:06:03;38.77;;;19.97;;
74995;SDS011;63545;51.690;5.202;2023-10-31T12:13:33;34.03;;;19.50;;
74995;SDS011;63545;51.690;5.202;2023-10-31T12:15:59;39.70;;;19.38;;
74995;SDS011;63545;51.690;5.202;2023-10-31T12:18:26;42.13;;;19.77;;
74995;SDS011;63545;51.690;5.202;2023-10-31T12:20:52;39.42;;;20.73;;
74995;SDS011;63545;51.690;5.202;2023-10-31T12:23:17;37.43;;;20.27;;
74995;SDS011;63545;51.690;5.202;2023-10-31T12:25:49;42.67;;;21.30;;
74995;SDS011;63545;51.690;5.202;2023-10-31T12:28:19;46.57;;;23.97;;
74995;SDS011;63545;51.690;5.202;2023-10-31T12:30:48;37.38;;;21.58;;
74995;SDS011;63545;51.690;5.202;2023-10-31T12:33:14;40.03;;;19.95;;
74995;SDS011;63545;51.690;5.202;2023-10-31T12:35:40;36.90;;;20.77;;
74995;SDS011;63545;51.690;5.202;2023-10-31T12:38:06;31.65;;;19.50;;
74995;SDS011;63545;51.690;5.202;2023-10-31T12:40:32;32.67;;;19.80;;
74995;SDS011;63545;51.690;5.202;2023-10-31T12:42:59;28.95;;;17.58;;
74995;SDS011;63545;51.690;5.202;2023-10-31T12:45:25;25.52;;;15.73;;
74995;SDS011;63545;51.690;5.202;2023-10-31T12:50:48;23.92;;;15.85;;
74995;SDS011;63545;51.690;5.202;2023-10-31T12:53:22;21.50;;;14.40;;
74995;SDS011;63545;51.690;5.202;2023-10-31T12:55:48;20.05;;;13.70;;
74995;SDS011;63545;51.690;5.202;2023-10-31T12:58:21;21.83;;;14.60;;
74995;SDS011;63545;51.690;5.202;2023-10-31T13:00:48;21.98;;;13.88;;
74995;SDS011;63545;51.690;5.202;2023-10-31T13:03:13;21.53;;;14.30;;
74995;SDS011;63545;51.690;5.202;2023-10-31T13:05:40;20.42;;;12.55;;
74995;SDS011;63545;51.690;5.202;2023-10-31T13:08:08;19.03;;;12.63;;
74995;SDS011;63545;51.690;5.202;2023-10-31T13:10:38;18.50;;;12.00;;
74995;SDS011;63545;51.690;5.202;2023-10-31T13:13:04;19.23;;;12.50;;
74995;SDS011;63545;51.690;5.202;2023-10-31T13:15:29;16.90;;;11.60;;
74995;SDS011;63545;51.690;5.202;2023-10-31T13:17:55;18.67;;;12.47;;
74995;SDS011;63545;51.690;5.202;2023-10-31T13:20:20;16.97;;;11.73;;
74995;SDS011;63545;51.690;5.202;2023-10-31T13:22:46;16.25;;;10.57;;
74995;SDS011;63545;51.690;5.202;2023-10-31T13:25:13;17.23;;;9.80;;
74995;SDS011;63545;51.690;5.202;2023-10-31T13:27:39;12.05;;;8.32;;
74995;SDS011;63545;51.690;5.202;2023-10-31T13:30:07;11.63;;;7.87;;
74995;SDS011;63545;51.690;5.202;2023-10-31T13:32:32;11.02;;;8.07;;
74995;SDS011;63545;51.690;5.202;2023-10-31T13:34:58;10.48;;;7.47;;
74995;SDS011;63545;51.690;5.202;2023-10-31T13:37:24;11.30;;;7.93;;
74995;SDS011;63545;51.690;5.202;2023-10-31T13:39:50;13.25;;;7.10;;
74995;SDS011;63545;51.690;5.202;2023-10-31T13:42:15;12.00;;;7.83;;
74995;SDS011;63545;51.690;5.202;2023-10-31T13:44:41;19.07;;;10.47;;
74995;SDS011;63545;51.690;5.202;2023-10-31T13:47:06;13.15;;;8.15;;
74995;SDS011;63545;51.690;5.202;2023-10-31T13:49:31;12.13;;;7.27;;
74995;SDS011;63545;51.690;5.202;2023-10-31T13:51:57;11.40;;;7.13;;
74995;SDS011;63545;51.690;5.202;2023-10-31T13:54:22;12.17;;;7.77;;
74995;SDS011;63545;51.690;5.202;2023-10-31T13:56:47;10.97;;;7.80;;
74995;SDS011;63545;51.690;5.202;2023-10-31T13:59:13;13.67;;;7.40;;
74995;SDS011;63545;51.690;5.202;2023-10-31T14:01:39;12.55;;;7.00;;
74995;SDS011;63545;51.690;5.202;2023-10-31T14:04:06;10.47;;;5.50;;
74995;SDS011;63545;51.690;5.202;2023-10-31T14:06:32;9.85;;;5.43;;
74995;SDS011;63545;51.690;5.202;2023-10-31T14:08:58;9.07;;;4.73;;
74995;SDS011;63545;51.690;5.202;2023-10-31T14:11:24;9.23;;;4.50;;
74995;SDS011;63545;51.690;5.202;2023-10-31T14:13:49;8.27;;;4.80;;
74995;SDS011;63545;51.690;5.202;2023-10-31T14:16:15;8.93;;;4.23;;
74995;SDS011;63545;51.690;5.202;2023-10-31T14:18:41;8.57;;;4.55;;
74995;SDS011;63545;51.690;5.202;2023-10-31T14:21:07;9.35;;;4.65;;
74995;SDS011;63545;51.690;5.202;2023-10-31T14:23:33;11.23;;;5.67;;
74995;SDS011;63545;51.690;5.202;2023-10-31T14:25:58;12.73;;;5.20;;